createdAt,value
2019-02-19T00:03:36.139Z,4.83
2019-02-19T00:06:37.434Z,5.63
2019-02-19T00:12:23.113Z,5.60
2019-02-19T00:15:43.370Z,4.93
2019-02-19T00:22:09.207Z,6.13
2019-02-19T00:27:52.487Z,5.60
2019-02-19T00:33:37.791Z,5.60
2019-02-19T00:36:38.331Z,6.47
2019-02-19T00:42:23.383Z,6.07
2019-02-19T00:48:01.935Z,6.50
2019-02-19T00:53:51.674Z,5.83
2019-02-19T00:56:52.857Z,6.00
2019-02-19T01:02:37.383Z,5.77
2019-02-19T01:08:22.964Z,5.70
2019-02-19T01:14:09.574Z,6.03
2019-02-19T01:17:10.690Z,6.40
2019-02-19T01:22:55.391Z,5.60
2019-02-19T01:28:59.695Z,6.17
2019-02-19T01:32:01.825Z,6.60
2019-02-19T01:37:47.548Z,6.00
2019-02-19T01:43:33.378Z,6.00
2019-02-19T01:49:19.989Z,6.13
2019-02-19T01:52:21.162Z,6.03
2019-02-19T01:58:06.681Z,6.67
2019-02-19T02:01:26.226Z,6.03
2019-02-19T02:07:51.025Z,6.57
2019-02-19T02:13:40.918Z,6.70
2019-02-19T02:20:19.489Z,8.27
2019-02-19T02:43:24.819Z,6.30
2019-02-19T03:11:02.900Z,7.03
2019-02-19T03:14:04.179Z,6.87
2019-02-19T03:19:49.475Z,8.00
2019-02-19T03:25:35.114Z,8.03
2019-02-19T03:28:35.596Z,7.87
2019-02-19T03:41:29.893Z,7.53
2019-02-19T03:44:31.171Z,7.80
2019-02-19T03:50:15.791Z,8.37
2019-02-19T03:55:59.156Z,9.10
2019-02-19T03:58:59.508Z,8.33
2019-02-19T04:01:59.957Z,8.93
2019-02-19T04:05:03.551Z,8.70
2019-02-19T04:10:50.986Z,9.13
2019-02-19T04:16:37.958Z,9.13
2019-02-19T04:26:30.078Z,8.73
2019-02-19T04:29:52.601Z,9.00
2019-02-19T04:35:57.625Z,9.27
2019-02-19T04:42:23.754Z,9.93
2019-02-19T04:51:41.380Z,10.43
2019-02-19T04:58:06.258Z,10.73
2019-02-19T05:01:07.690Z,11.23
2019-02-19T05:04:27.478Z,10.73
2019-02-19T05:07:31.392Z,10.27
2019-02-19T05:10:36.969Z,10.23
2019-02-19T05:16:21.849Z,12.07
2019-02-19T05:22:13.341Z,14.40
2019-02-19T05:25:33.617Z,12.67
2019-02-19T05:41:31.183Z,13.00
2019-02-19T05:47:17.381Z,13.87
2019-02-19T05:53:24.031Z,13.83
2019-02-19T05:56:23.076Z,14.17
2019-02-19T05:59:24.271Z,14.33
2019-02-19T06:05:33.177Z,14.07
2019-02-19T06:11:44.574Z,13.80
2019-02-19T06:17:36.402Z,15.90
2019-02-19T06:23:27.294Z,16.67
2019-02-19T06:29:13.975Z,15.57
2019-02-19T06:32:14.423Z,14.33
2019-02-19T06:38:00.150Z,14.83
2019-02-19T06:43:49.207Z,14.73
2019-02-19T06:53:37.443Z,15.43
2019-02-19T06:56:37.781Z,14.33
2019-02-19T07:06:11.317Z,14.37
2019-02-19T07:09:12.837Z,15.33
2019-02-19T07:15:52.888Z,14.00
2019-02-19T07:18:54.131Z,14.17
2019-02-19T07:27:51.082Z,12.60
2019-02-19T07:36:40.823Z,15.23
2019-02-19T07:42:48.466Z,14.63
2019-02-19T07:45:52.293Z,14.47
2019-02-19T07:48:53.484Z,14.07
2019-02-19T07:54:43.487Z,14.00
2019-02-19T08:04:29.181Z,14.00
2019-02-19T08:07:49.379Z,13.83
2019-02-19T08:10:50.893Z,13.73
2019-02-19T08:13:52.719Z,14.20
2019-02-19T08:20:31.599Z,14.47
2019-02-19T08:26:20.911Z,14.17
2019-02-19T08:29:22.226Z,12.93
2019-02-19T08:35:08.686Z,13.40
2019-02-19T08:38:09.163Z,13.97
2019-02-19T08:41:10.068Z,14.80
2019-02-19T08:50:20.478Z,15.33
2019-02-19T08:56:09.307Z,13.90
2019-02-19T09:02:08.830Z,11.73
2019-02-19T09:05:14.911Z,12.27
2019-02-19T09:11:53.723Z,12.50
2019-02-19T09:18:20.429Z,12.17
2019-02-19T09:21:22.974Z,12.40
2019-02-19T09:27:08.831Z,12.30
2019-02-19T09:33:12.303Z,12.17
2019-02-19T09:36:13.491Z,12.00
2019-02-19T09:39:19.754Z,12.77
2019-02-19T09:42:19.354Z,11.80
2019-02-19T09:48:06.162Z,11.40
2019-02-19T09:54:16.898Z,10.57
2019-02-19T09:57:22.475Z,9.20
2019-02-19T10:03:08.343Z,10.70
2019-02-19T10:12:18.365Z,11.03
2019-02-19T10:18:09.963Z,10.20
2019-02-19T10:23:50.651Z,10.60
2019-02-19T10:26:56.803Z,10.00
2019-02-19T10:33:34.135Z,8.30
2019-02-19T10:39:32.486Z,8.93
2019-02-19T10:42:38.980Z,9.27
2019-02-19T10:48:25.582Z,7.87
2019-02-19T10:58:22.938Z,6.50
2019-02-19T11:04:05.406Z,6.70
2019-02-19T11:09:50.902Z,6.67
2019-02-19T11:12:52.197Z,6.17
2019-02-19T11:15:52.955Z,5.90
2019-02-19T11:18:54.030Z,6.60
2019-02-19T11:24:39.589Z,5.53
2019-02-19T11:30:25.090Z,7.47
2019-02-19T11:36:11.524Z,5.93
2019-02-19T11:39:12.707Z,5.60
2019-02-19T11:44:56.510Z,5.33
2019-02-19T11:51:02.143Z,5.03
2019-02-19T11:56:49.620Z,5.60
2019-02-19T12:06:07.358Z,4.97
2019-02-19T12:15:03.050Z,8.30
2019-02-19T12:18:05.158Z,5.73
2019-02-19T12:21:05.883Z,5.00
2019-02-19T12:24:06.978Z,5.37
2019-02-19T12:27:29.940Z,4.40
2019-02-19T12:30:31.427Z,4.27
2019-02-19T12:36:18.138Z,5.27
2019-02-19T12:42:09.026Z,4.90
2019-02-19T12:47:54.558Z,4.03
2019-02-19T12:54:00.138Z,4.10
2019-02-19T12:57:00.624Z,3.73
2019-02-19T13:02:45.127Z,3.97
2019-02-19T13:11:56.063Z,3.93
2019-02-19T13:17:40.084Z,4.37
2019-02-19T13:21:00.124Z,4.03
2019-02-19T13:27:30.003Z,4.53
2019-02-19T13:33:17.611Z,3.47
2019-02-19T13:39:03.143Z,3.57
2019-02-19T13:42:09.440Z,3.83
2019-02-19T13:52:22.566Z,4.47
2019-02-19T14:01:30.173Z,3.50
2019-02-19T14:04:29.324Z,4.33
2019-02-19T14:10:14.074Z,4.00
2019-02-19T14:13:15.263Z,4.50
2019-02-19T14:19:08.826Z,4.63
2019-02-19T14:24:53.914Z,4.67
2019-02-19T14:27:54.418Z,4.10
2019-02-19T14:30:55.142Z,4.37
2019-02-19T14:33:55.767Z,4.60
2019-02-19T14:39:40.688Z,4.57
2019-02-19T14:45:44.229Z,4.77
2019-02-19T14:58:07.475Z,5.03
2019-02-19T15:01:28.892Z,5.03
2019-02-19T15:11:21.831Z,4.30
2019-02-19T15:17:23.259Z,4.83
2019-02-19T15:20:22.494Z,5.33
2019-02-19T15:26:10.056Z,4.67
2019-02-19T15:35:05.670Z,4.73
2019-02-19T15:38:11.258Z,5.33
2019-02-19T15:41:12.906Z,3.63
2019-02-19T15:44:13.335Z,3.83
2019-02-19T15:47:19.578Z,4.10
2019-02-19T15:53:10.330Z,5.43
2019-02-19T15:59:55.830Z,4.17
2019-02-19T16:06:20.371Z,3.90
2019-02-19T16:09:28.893Z,4.07
2019-02-19T16:15:55.655Z,3.83
2019-02-19T16:18:56.894Z,3.97
2019-02-19T16:22:10.807Z,3.80
2019-02-19T16:25:30.928Z,4.10
2019-02-19T16:28:31.387Z,3.70
2019-02-19T16:34:17.118Z,3.83
2019-02-19T16:40:02.252Z,3.80
2019-02-19T16:46:07.935Z,4.70
2019-02-19T16:52:19.638Z,4.40
2019-02-19T16:55:23.774Z,5.00
2019-02-19T17:01:49.240Z,2.30
2019-02-19T17:04:49.783Z,2.07
2019-02-19T17:10:34.704Z,2.40
2019-02-19T17:13:35.252Z,1.73
2019-02-19T17:19:40.941Z,2.63
2019-02-19T17:25:26.552Z,2.30
2019-02-19T17:28:41.165Z,2.00
2019-02-19T17:31:42.494Z,2.53
2019-02-19T17:34:48.659Z,2.13
2019-02-19T17:40:34.449Z,3.00
2019-02-19T17:43:41.506Z,2.93
2019-02-19T17:46:42.757Z,3.03
2019-02-19T17:52:48.153Z,3.50
2019-02-19T17:55:49.610Z,3.40
2019-02-19T18:01:34.497Z,3.73
2019-02-19T18:07:19.214Z,3.37
2019-02-19T18:13:15.754Z,3.83
2019-02-19T18:16:16.573Z,3.93
2019-02-19T18:22:01.284Z,4.57
2019-02-19T18:27:46.903Z,3.43
2019-02-19T18:30:47.534Z,4.23
2019-02-19T18:33:48.608Z,3.80
2019-02-19T18:36:49.104Z,3.80
2019-02-19T18:42:34.016Z,4.17
2019-02-19T18:45:35.211Z,3.90
2019-02-19T18:48:36.473Z,4.43
2019-02-19T18:51:37.036Z,4.63
2019-02-19T18:54:39.458Z,4.57
2019-02-19T19:00:46.663Z,4.70
2019-02-19T19:03:47.459Z,4.67
2019-02-19T19:09:32.091Z,5.30
2019-02-19T19:12:32.312Z,4.47
2019-02-19T19:18:19.306Z,5.03
2019-02-19T19:24:04.119Z,4.73
2019-02-19T19:29:48.673Z,3.93
2019-02-19T19:38:39.755Z,3.73
2019-02-19T19:44:45.460Z,4.50
2019-02-19T19:50:29.175Z,4.73
2019-02-19T19:53:30.887Z,4.13
2019-02-19T19:56:32.196Z,4.60
2019-02-19T19:59:50.785Z,4.73
2019-02-19T20:05:35.892Z,5.47
2019-02-19T20:08:36.449Z,4.70
2019-02-19T20:11:37.079Z,5.23
2019-02-19T20:14:38.540Z,4.07
2019-02-19T20:20:23.318Z,4.00
2019-02-19T20:26:29.143Z,4.70
2019-02-19T20:32:14.552Z,4.10
2019-02-19T20:35:14.837Z,4.73
2019-02-19T20:40:55.074Z,9.70
2019-02-19T20:46:44.815Z,4.60
2019-02-19T20:52:30.565Z,3.90
2019-02-19T20:58:15.987Z,4.07
2019-02-19T21:01:17.234Z,4.20
2019-02-19T21:07:02.006Z,5.10
2019-02-19T21:12:46.575Z,4.97
2019-02-19T21:18:38.167Z,6.07
2019-02-19T21:24:24.058Z,5.77
2019-02-19T21:27:25.263Z,5.30
2019-02-19T21:36:15.442Z,3.70
2019-02-19T21:39:17.913Z,3.83
2019-02-19T21:45:04.567Z,3.43
2019-02-19T21:48:04.755Z,3.50
2019-02-19T21:51:06.330Z,3.30
2019-02-19T21:54:07.491Z,3.57
2019-02-19T21:57:09.040Z,2.97
2019-02-19T22:00:10.191Z,3.13
2019-02-19T22:06:49.496Z,2.80
2019-02-19T22:09:50.702Z,2.13
2019-02-19T22:12:51.074Z,2.87
2019-02-19T22:15:52.424Z,2.77
2019-02-19T22:18:53.112Z,2.50
2019-02-19T22:25:27.072Z,2.50
2019-02-19T22:31:12.626Z,3.20
2019-02-19T22:34:13.281Z,2.80
2019-02-19T22:37:13.858Z,3.17
2019-02-19T22:40:14.795Z,3.20
2019-02-19T22:46:01.193Z,2.90
2019-02-19T22:51:46.055Z,2.73
2019-02-19T22:54:46.657Z,3.03
2019-02-19T22:57:48.210Z,3.60
2019-02-19T23:00:49.572Z,2.93
2019-02-19T23:06:34.106Z,2.97
2019-02-19T23:09:35.453Z,3.03
2019-02-19T23:18:30.850Z,3.57
2019-02-19T23:21:31.975Z,3.33
2019-02-19T23:27:17.000Z,3.27
2019-02-19T23:30:17.786Z,3.20
2019-02-19T23:36:02.639Z,3.73
2019-02-19T23:42:09.049Z,3.40
2019-02-19T23:47:53.648Z,3.37
2019-02-19T23:50:54.784Z,3.27
2019-02-19T23:56:39.835Z,3.63
